createdAt,value
2018-12-03T00:01:06.881Z,12.80
2018-12-03T00:03:41.056Z,12.80
2018-12-03T00:06:15.372Z,12.80
2018-12-03T00:08:49.691Z,12.80
2018-12-03T00:11:24.026Z,12.70
2018-12-03T00:13:58.521Z,12.80
2018-12-03T00:16:32.765Z,12.80
2018-12-03T00:19:07.675Z,12.80
2018-12-03T00:21:41.969Z,12.80
2018-12-03T00:24:16.230Z,12.80
2018-12-03T00:26:50.524Z,12.80
2018-12-03T00:29:24.792Z,12.80
2018-12-03T00:31:59.077Z,12.80
2018-12-03T00:34:33.412Z,12.80
2018-12-03T00:37:07.656Z,12.80
2018-12-03T00:39:41.874Z,12.80
2018-12-03T00:42:16.390Z,12.80
2018-12-03T00:44:50.697Z,12.80
2018-12-03T00:47:25.104Z,12.80
2018-12-03T00:49:59.477Z,12.80
2018-12-03T00:52:33.784Z,12.80
2018-12-03T00:55:08.540Z,12.90
2018-12-03T00:57:42.699Z,12.80
2018-12-03T01:00:17.033Z,12.80
2018-12-03T01:02:51.200Z,12.80
2018-12-03T01:05:25.489Z,12.80
2018-12-03T01:07:59.751Z,12.80
2018-12-03T01:10:34.111Z,12.80
2018-12-03T01:13:08.324Z,12.80
2018-12-03T01:15:42.693Z,12.80
2018-12-03T01:18:16.896Z,12.80
2018-12-03T01:20:51.201Z,12.80
2018-12-03T01:23:25.615Z,12.80
2018-12-03T01:25:59.841Z,12.80
2018-12-03T01:28:34.088Z,12.80
2018-12-03T01:31:08.429Z,12.80
2018-12-03T01:33:42.848Z,12.80
2018-12-03T01:36:17.313Z,12.80
2018-12-03T01:38:51.705Z,12.80
2018-12-03T01:41:26.120Z,12.80
2018-12-03T01:44:00.412Z,12.80
2018-12-03T01:46:34.688Z,12.80
2018-12-03T01:49:08.978Z,12.90
2018-12-03T01:51:43.181Z,12.80
2018-12-03T01:54:17.400Z,12.80
2018-12-03T01:56:51.615Z,12.80
2018-12-03T01:59:25.885Z,12.90
2018-12-03T02:02:00.321Z,12.80
2018-12-03T02:04:34.548Z,12.80
2018-12-03T02:07:08.873Z,12.80
2018-12-03T02:09:43.116Z,12.90
2018-12-03T02:12:17.444Z,12.90
2018-12-03T02:14:51.615Z,12.90
2018-12-03T02:17:26.065Z,12.90
2018-12-03T02:20:00.280Z,12.90
2018-12-03T02:22:34.444Z,12.90
2018-12-03T02:25:09.635Z,12.90
2018-12-03T02:27:43.776Z,13.00
2018-12-03T02:30:18.486Z,13.00
2018-12-03T02:32:52.932Z,13.00
2018-12-03T02:35:27.240Z,13.00
2018-12-03T02:38:01.512Z,13.00
2018-12-03T02:40:35.768Z,13.00
2018-12-03T02:43:10.087Z,13.00
2018-12-03T02:45:44.332Z,13.00
2018-12-03T02:48:18.749Z,13.00
2018-12-03T02:50:52.880Z,13.00
2018-12-03T02:53:27.101Z,13.00
2018-12-03T02:56:01.497Z,13.00
2018-12-03T02:58:35.776Z,13.00
2018-12-03T03:01:09.990Z,13.00
2018-12-03T03:03:44.210Z,13.00
2018-12-03T03:06:18.566Z,13.10
2018-12-03T03:08:53.096Z,13.10
2018-12-03T03:11:27.242Z,13.00
2018-12-03T03:14:01.505Z,13.10
2018-12-03T03:16:35.701Z,13.10
2018-12-03T03:19:09.996Z,13.10
2018-12-03T03:21:44.279Z,13.10
2018-12-03T03:24:18.471Z,13.10
2018-12-03T03:26:52.833Z,13.10
2018-12-03T03:29:27.004Z,13.10
2018-12-03T03:32:01.169Z,13.10
2018-12-03T03:34:35.354Z,13.10
2018-12-03T03:37:09.571Z,13.10
2018-12-03T03:39:43.832Z,13.10
2018-12-03T03:42:17.970Z,13.10
2018-12-03T03:44:52.264Z,13.10
2018-12-03T03:47:26.644Z,13.10
2018-12-03T03:50:00.831Z,13.10
2018-12-03T03:52:35.209Z,13.10
2018-12-03T03:55:10.131Z,13.10
2018-12-03T03:57:44.463Z,13.10
2018-12-03T04:00:18.693Z,13.20
2018-12-03T04:02:53.054Z,13.20
2018-12-03T04:05:27.427Z,13.10
2018-12-03T04:08:01.749Z,13.20
2018-12-03T04:10:36.113Z,13.20
2018-12-03T04:13:10.255Z,13.20
2018-12-03T04:15:44.920Z,13.20
2018-12-03T04:18:19.305Z,13.20
2018-12-03T04:20:53.617Z,13.10
2018-12-03T04:23:27.773Z,13.20
2018-12-03T04:26:02.034Z,13.10
2018-12-03T04:28:36.300Z,13.10
2018-12-03T04:31:10.575Z,13.10
2018-12-03T04:33:44.856Z,13.10
2018-12-03T04:36:19.162Z,13.00
2018-12-03T04:38:53.501Z,13.10
2018-12-03T04:41:27.764Z,13.00
2018-12-03T04:44:01.972Z,13.00
2018-12-03T04:46:36.259Z,13.00
2018-12-03T04:49:10.400Z,13.00
2018-12-03T04:51:44.622Z,13.00
2018-12-03T04:54:18.912Z,13.00
2018-12-03T04:56:53.194Z,12.90
2018-12-03T04:59:27.426Z,13.00
2018-12-03T05:02:01.607Z,12.90
2018-12-03T05:04:35.773Z,12.90
2018-12-03T05:07:10.101Z,13.00
2018-12-03T05:09:44.293Z,13.00
2018-12-03T05:12:18.545Z,13.00
2018-12-03T05:14:52.945Z,13.00
2018-12-03T05:17:27.129Z,13.00
2018-12-03T05:20:01.301Z,13.00
2018-12-03T05:22:35.560Z,13.00
2018-12-03T05:25:10.613Z,13.00
2018-12-03T05:27:44.764Z,13.00
2018-12-03T05:30:19.004Z,13.00
2018-12-03T05:32:53.248Z,13.00
2018-12-03T05:35:28.802Z,13.00
2018-12-03T05:38:02.949Z,13.00
2018-12-03T05:40:37.261Z,13.00
2018-12-03T05:43:11.642Z,12.90
2018-12-03T05:45:45.869Z,13.00
2018-12-03T05:48:20.181Z,13.00
2018-12-03T05:50:54.468Z,12.90
2018-12-03T05:53:28.752Z,12.90
2018-12-03T05:56:02.900Z,12.90
2018-12-03T05:58:37.040Z,12.90
2018-12-03T06:01:11.492Z,12.90
2018-12-03T06:03:45.821Z,12.90
2018-12-03T06:06:20.172Z,12.90
2018-12-03T06:08:54.739Z,12.90
2018-12-03T06:11:28.880Z,13.00
2018-12-03T06:14:03.088Z,13.00
2018-12-03T06:16:37.292Z,12.90
2018-12-03T06:19:11.645Z,12.90
2018-12-03T06:21:45.797Z,12.90
2018-12-03T06:24:19.965Z,12.80
2018-12-03T06:26:54.256Z,12.90
2018-12-03T06:29:28.438Z,12.90
2018-12-03T06:32:02.782Z,12.80
2018-12-03T06:34:37.070Z,12.80
2018-12-03T06:37:11.412Z,12.80
2018-12-03T06:39:45.710Z,12.80
2018-12-03T06:42:19.925Z,12.80
2018-12-03T06:44:54.093Z,12.80
2018-12-03T06:47:28.513Z,12.80
2018-12-03T06:50:02.704Z,12.80
2018-12-03T06:52:36.949Z,12.80
2018-12-03T06:55:11.332Z,12.80
2018-12-03T06:57:45.685Z,12.80
2018-12-03T07:00:21.325Z,12.80
2018-12-03T07:02:55.588Z,12.80
2018-12-03T07:05:29.894Z,12.80
2018-12-03T07:08:05.000Z,12.80
2018-12-03T07:10:39.345Z,12.80
2018-12-03T07:13:16.137Z,12.70
2018-12-03T07:15:52.756Z,12.70
2018-12-03T07:18:27.141Z,12.70
2018-12-03T07:21:01.364Z,12.60
2018-12-03T07:23:35.608Z,12.60
2018-12-03T07:26:09.893Z,12.50
2018-12-03T07:28:44.093Z,12.50
2018-12-03T07:31:18.320Z,12.50
2018-12-03T07:33:52.600Z,12.50
2018-12-03T07:36:26.799Z,12.50
2018-12-03T07:39:01.105Z,12.50
2018-12-03T07:41:35.393Z,12.50
2018-12-03T07:44:09.636Z,12.40
2018-12-03T07:46:44.024Z,12.40
2018-12-03T07:49:18.328Z,12.40
2018-12-03T07:51:52.485Z,12.50
2018-12-03T07:54:26.632Z,12.40
2018-12-03T07:57:00.841Z,12.40
2018-12-03T07:59:35.144Z,12.40
2018-12-03T08:02:09.577Z,12.40
2018-12-03T08:04:43.800Z,12.30
2018-12-03T08:07:17.988Z,12.30
2018-12-03T08:09:52.345Z,12.30
2018-12-03T08:12:26.529Z,12.30
2018-12-03T08:15:00.836Z,12.30
2018-12-03T08:17:35.125Z,12.30
2018-12-03T08:20:16.934Z,12.30
2018-12-03T08:22:53.416Z,12.30
2018-12-03T08:25:27.698Z,12.30
2018-12-03T08:28:02.065Z,12.40
2018-12-03T08:30:36.254Z,12.40
2018-12-03T08:33:10.469Z,12.30
2018-12-03T08:35:44.721Z,12.30
2018-12-03T08:38:18.996Z,12.30
2018-12-03T08:40:53.208Z,12.30
2018-12-03T08:43:27.512Z,12.30
2018-12-03T08:46:02.878Z,12.40
2018-12-03T08:48:38.656Z,12.40
2018-12-03T08:51:13.110Z,12.40
2018-12-03T08:53:48.508Z,12.40
2018-12-03T08:56:22.784Z,12.50
2018-12-03T08:58:57.024Z,12.50
2018-12-03T09:01:31.169Z,12.50
2018-12-03T09:04:08.864Z,12.50
2018-12-03T09:06:43.140Z,12.50
2018-12-03T09:09:18.117Z,12.50
2018-12-03T09:11:52.728Z,12.50
2018-12-03T09:14:29.303Z,12.50
2018-12-03T09:17:03.655Z,12.50
2018-12-03T09:19:38.131Z,12.50
2018-12-03T09:22:12.313Z,12.50
2018-12-03T09:24:46.628Z,12.60
2018-12-03T09:27:20.955Z,12.70
2018-12-03T09:29:58.195Z,12.70
2018-12-03T09:32:33.437Z,12.80
2018-12-03T09:35:09.069Z,12.90
2018-12-03T09:37:43.435Z,13.00
2018-12-03T09:40:28.504Z,13.10
2018-12-03T09:43:02.648Z,13.10
2018-12-03T09:45:36.968Z,13.20
2018-12-03T09:48:11.131Z,13.10
2018-12-03T09:50:45.334Z,13.10
2018-12-03T09:53:19.660Z,13.00
2018-12-03T09:55:53.933Z,13.10
2018-12-03T09:58:28.199Z,13.00
2018-12-03T10:01:02.473Z,13.10
2018-12-03T10:03:41.412Z,13.10
2018-12-03T10:06:17.168Z,13.10
2018-12-03T10:08:51.388Z,13.10
2018-12-03T10:11:25.754Z,13.20
2018-12-03T10:13:59.945Z,13.20
2018-12-03T10:16:34.436Z,13.20
2018-12-03T10:19:08.701Z,13.20
2018-12-03T10:21:46.253Z,13.20
2018-12-03T10:24:20.629Z,13.20
2018-12-03T10:26:54.860Z,13.20
2018-12-03T10:29:29.270Z,13.20
2018-12-03T10:32:03.651Z,13.10
2018-12-03T10:34:37.995Z,13.20
2018-12-03T10:37:12.428Z,13.20
2018-12-03T10:39:46.817Z,13.30
2018-12-03T10:42:21.140Z,13.30
2018-12-03T10:44:55.416Z,13.30
2018-12-03T10:47:29.756Z,13.30
2018-12-03T10:50:08.756Z,13.20
2018-12-03T10:52:42.904Z,13.20
2018-12-03T10:55:17.105Z,13.20
2018-12-03T10:57:51.460Z,13.20
2018-12-03T11:00:31.313Z,13.10
2018-12-03T11:03:11.037Z,13.10
2018-12-03T11:05:51.072Z,13.10
2018-12-03T11:08:25.267Z,13.10
2018-12-03T11:10:59.674Z,13.20
2018-12-03T11:13:33.952Z,13.20
2018-12-03T11:16:10.573Z,13.20
2018-12-03T11:18:49.096Z,13.20
2018-12-03T11:21:23.501Z,13.10
2018-12-03T11:23:57.724Z,13.10
2018-12-03T11:26:35.141Z,13.10
2018-12-03T11:29:09.603Z,13.00
2018-12-03T11:31:43.877Z,13.00
2018-12-03T11:34:22.272Z,12.90
2018-12-03T11:36:59.447Z,12.90
2018-12-03T11:39:43.941Z,13.00
2018-12-03T11:42:18.327Z,13.00
2018-12-03T11:44:52.708Z,13.10
2018-12-03T11:47:27.017Z,13.20
2018-12-03T11:50:01.188Z,13.20
2018-12-03T11:52:35.463Z,13.30
2018-12-03T11:55:09.838Z,13.30
2018-12-03T11:57:44.026Z,13.40
2018-12-03T12:00:18.255Z,13.50
2018-12-03T12:02:52.670Z,13.60
2018-12-03T12:05:26.998Z,13.70
2018-12-03T12:08:01.188Z,13.70
2018-12-03T12:10:35.516Z,13.70
2018-12-03T12:13:09.787Z,13.80
2018-12-03T12:15:44.101Z,13.70
2018-12-03T12:18:18.377Z,13.80
2018-12-03T12:20:52.696Z,13.90
2018-12-03T12:23:26.971Z,13.80
2018-12-03T12:26:01.420Z,13.80
2018-12-03T12:28:38.183Z,13.70
2018-12-03T12:31:09.907Z,13.70
2018-12-03T12:33:44.200Z,13.50
2018-12-03T12:36:18.477Z,13.50
2018-12-03T12:38:52.728Z,13.50
2018-12-03T12:41:27.156Z,13.50
2018-12-03T12:44:01.444Z,13.50
2018-12-03T12:46:36.900Z,13.50
2018-12-03T12:49:11.149Z,13.50
2018-12-03T12:51:45.308Z,13.40
2018-12-03T12:54:19.510Z,13.40
2018-12-03T12:56:53.860Z,13.40
2018-12-03T12:59:28.040Z,13.50
2018-12-03T13:02:02.515Z,13.60
2018-12-03T13:04:36.705Z,13.60
2018-12-03T13:07:11.162Z,13.50
2018-12-03T13:09:45.493Z,13.50
2018-12-03T13:12:19.808Z,13.50
2018-12-03T13:14:54.097Z,13.40
2018-12-03T13:17:29.755Z,13.40
2018-12-03T13:20:05.171Z,13.40
2018-12-03T13:22:39.503Z,13.40
2018-12-03T13:25:15.444Z,13.40
2018-12-03T13:27:50.821Z,13.50
2018-12-03T13:30:25.029Z,13.40
2018-12-03T13:32:59.388Z,13.40
2018-12-03T13:35:33.640Z,13.40
2018-12-03T13:38:07.812Z,13.30
2018-12-03T13:40:42.124Z,13.30
2018-12-03T13:43:16.552Z,13.30
2018-12-03T13:45:50.836Z,13.30
2018-12-03T13:48:25.061Z,13.30
2018-12-03T13:50:59.312Z,13.30
2018-12-03T13:53:33.641Z,13.30
2018-12-03T13:56:08.025Z,13.30
2018-12-03T13:58:42.190Z,13.20
2018-12-03T14:01:16.697Z,13.20
2018-12-03T14:03:51.502Z,13.20
2018-12-03T14:06:32.829Z,13.20
2018-12-03T14:09:20.925Z,13.20
2018-12-03T14:12:03.373Z,13.20
2018-12-03T14:14:56.175Z,13.20
2018-12-03T14:17:41.094Z,13.20
2018-12-03T14:20:15.630Z,13.20
2018-12-03T14:23:00.008Z,13.20
2018-12-03T14:25:34.313Z,13.10
2018-12-03T14:28:08.742Z,13.20
2018-12-03T14:30:43.064Z,13.20
2018-12-03T14:33:17.300Z,13.10
2018-12-03T14:35:51.572Z,13.10
2018-12-03T14:38:25.893Z,13.10
2018-12-03T14:41:00.181Z,13.10
2018-12-03T14:43:34.378Z,13.00
2018-12-03T14:46:08.675Z,13.00
2018-12-03T14:48:42.915Z,13.00
2018-12-03T14:51:17.220Z,13.00
2018-12-03T14:53:51.445Z,13.00
2018-12-03T14:56:25.684Z,12.90
2018-12-03T14:59:00.016Z,13.00
2018-12-03T15:01:34.216Z,12.90
2018-12-03T15:04:11.932Z,12.90
2018-12-03T15:06:46.220Z,12.90
2018-12-03T15:09:20.685Z,12.90
2018-12-03T15:12:29.564Z,12.90
2018-12-03T15:15:05.216Z,12.90
2018-12-03T15:17:41.592Z,12.90
2018-12-03T15:20:15.894Z,12.90
2018-12-03T15:22:50.330Z,12.90
2018-12-03T15:25:24.772Z,12.90
2018-12-03T15:27:59.079Z,12.90
2018-12-03T15:30:33.328Z,12.90
2018-12-03T15:33:07.536Z,12.90
2018-12-03T15:35:42.038Z,12.90
2018-12-03T15:38:16.392Z,12.90
2018-12-03T15:40:50.825Z,12.90
2018-12-03T15:43:25.217Z,12.90
2018-12-03T15:45:59.448Z,12.80
2018-12-03T15:48:33.936Z,12.80
2018-12-03T15:51:08.292Z,12.80
2018-12-03T15:53:42.624Z,12.80
2018-12-03T15:56:16.892Z,12.90
2018-12-03T15:58:51.345Z,12.80
2018-12-03T16:01:25.625Z,12.80
2018-12-03T16:03:59.860Z,12.80
2018-12-03T16:06:34.185Z,12.80
2018-12-03T16:09:11.465Z,12.70
2018-12-03T16:11:45.823Z,12.70
2018-12-03T16:14:20.105Z,12.70
2018-12-03T16:16:54.714Z,12.60
2018-12-03T16:19:29.057Z,12.60
2018-12-03T16:22:03.660Z,12.60
2018-12-03T16:24:38.705Z,12.50
2018-12-03T16:27:13.262Z,12.50
2018-12-03T16:29:47.705Z,12.50
2018-12-03T16:32:22.163Z,12.50
2018-12-03T16:34:56.712Z,12.60
2018-12-03T16:37:31.077Z,12.50
2018-12-03T16:40:06.980Z,12.50
2018-12-03T16:42:41.313Z,12.50
2018-12-03T16:45:15.621Z,12.50
2018-12-03T16:47:49.855Z,12.50
2018-12-03T16:50:24.206Z,12.50
2018-12-03T16:52:58.496Z,12.50
2018-12-03T16:55:33.010Z,12.40
2018-12-03T16:58:07.562Z,12.50
2018-12-03T17:00:41.742Z,12.50
2018-12-03T17:03:16.261Z,12.50
2018-12-03T17:05:50.680Z,12.50
2018-12-03T17:08:25.077Z,12.40
2018-12-03T17:10:59.484Z,12.40
2018-12-03T17:13:33.779Z,12.40
2018-12-03T17:16:08.078Z,12.50
2018-12-03T17:18:42.442Z,12.40
2018-12-03T17:23:29.820Z,12.40
2018-12-03T17:26:04.195Z,12.40
2018-12-03T17:28:38.532Z,12.30
2018-12-03T17:31:13.011Z,12.30
2018-12-03T17:33:48.311Z,12.30
2018-12-03T17:36:22.917Z,12.30
2018-12-03T17:38:57.352Z,12.30
2018-12-03T17:41:31.612Z,12.30
2018-12-03T17:44:06.552Z,12.30
2018-12-03T17:46:41.302Z,12.30
2018-12-03T17:49:15.749Z,12.30
2018-12-03T17:51:50.057Z,12.20
2018-12-03T17:54:24.200Z,12.20
2018-12-03T17:56:58.728Z,12.20
2018-12-03T17:59:32.927Z,12.10
2018-12-03T18:02:07.395Z,12.10
2018-12-03T18:04:41.661Z,12.10
2018-12-03T18:07:15.976Z,12.10
2018-12-03T18:09:51.609Z,12.10
2018-12-03T18:12:25.976Z,12.10
2018-12-03T18:15:00.231Z,12.10
2018-12-03T18:17:34.701Z,12.10
2018-12-03T18:20:09.865Z,12.10
2018-12-03T18:22:44.193Z,12.00
2018-12-03T18:25:18.657Z,12.10
2018-12-03T18:27:52.902Z,12.10
2018-12-03T18:30:27.562Z,12.10
2018-12-03T18:33:01.808Z,12.10
2018-12-03T18:35:36.388Z,12.10
2018-12-03T18:38:10.740Z,12.10
2018-12-03T18:40:45.127Z,12.10
2018-12-03T18:43:19.480Z,12.10
2018-12-03T18:45:53.653Z,12.10
2018-12-03T18:48:28.062Z,12.20
2018-12-03T18:51:02.540Z,12.10
2018-12-03T18:53:36.892Z,12.10
2018-12-03T18:56:11.069Z,12.10
2018-12-03T18:58:55.682Z,12.10
2018-12-03T19:01:30.160Z,12.10
2018-12-03T19:04:04.608Z,12.10
2018-12-03T19:06:38.978Z,12.10
2018-12-03T19:09:13.321Z,12.10
2018-12-03T19:11:47.606Z,12.10
2018-12-03T19:14:21.815Z,12.10
2018-12-03T19:16:56.431Z,12.00
2018-12-03T19:19:30.899Z,12.10
2018-12-03T19:22:05.281Z,12.10
2018-12-03T19:24:39.436Z,12.10
2018-12-03T19:27:13.780Z,12.10
2018-12-03T19:29:48.020Z,12.10
2018-12-03T19:32:22.407Z,12.10
2018-12-03T19:34:56.868Z,12.10
2018-12-03T19:37:31.142Z,12.10
2018-12-03T19:40:06.940Z,12.10
2018-12-03T19:42:41.314Z,12.10
2018-12-03T19:45:15.569Z,12.10
2018-12-03T19:47:49.944Z,12.10
2018-12-03T19:50:24.292Z,12.10
2018-12-03T19:52:58.640Z,12.10
2018-12-03T19:55:34.137Z,12.20
2018-12-03T19:58:14.157Z,12.20
2018-12-03T20:00:49.172Z,12.20
2018-12-03T20:03:23.321Z,12.20
2018-12-03T20:05:57.899Z,12.20
2018-12-03T20:08:32.118Z,12.30
2018-12-03T20:11:07.161Z,12.30
2018-12-03T20:13:41.305Z,12.20
2018-12-03T20:16:15.605Z,12.30
2018-12-03T20:18:49.941Z,12.30
2018-12-03T20:21:25.321Z,12.30
2018-12-03T20:24:03.549Z,12.30
2018-12-03T20:26:46.072Z,12.30
2018-12-03T20:29:37.865Z,12.30
2018-12-03T20:32:33.427Z,12.30
2018-12-03T20:35:18.406Z,12.30
2018-12-03T20:38:06.806Z,12.30
2018-12-03T20:41:25.142Z,12.30
2018-12-03T20:44:08.040Z,12.30
2018-12-03T20:46:53.698Z,12.30
2018-12-03T20:49:39.009Z,12.20
2018-12-03T20:52:18.222Z,12.30
2018-12-03T20:54:54.554Z,12.30
2018-12-03T20:57:28.811Z,12.30
2018-12-03T21:00:03.178Z,12.30
2018-12-03T21:02:37.500Z,12.30
2018-12-03T21:05:11.758Z,12.30
2018-12-03T21:07:46.290Z,12.30
2018-12-03T21:10:20.748Z,12.30
2018-12-03T21:12:54.953Z,12.30
2018-12-03T21:15:29.317Z,12.30
2018-12-03T21:18:03.677Z,12.20
2018-12-03T21:20:45.541Z,12.30
2018-12-03T21:23:19.864Z,12.20
2018-12-03T21:25:54.243Z,12.20
2018-12-03T21:28:28.401Z,12.20
2018-12-03T21:31:02.907Z,12.20
2018-12-03T21:33:37.278Z,12.20
2018-12-03T21:36:11.672Z,12.20
2018-12-03T21:38:45.977Z,12.20
2018-12-03T21:41:20.337Z,12.20
2018-12-03T21:43:54.709Z,12.10
2018-12-03T21:46:29.113Z,12.10
2018-12-03T21:49:03.518Z,12.10
2018-12-03T21:51:37.741Z,12.10
2018-12-03T21:54:12.060Z,12.10
2018-12-03T21:56:46.584Z,12.10
2018-12-03T21:59:20.788Z,12.10
2018-12-03T22:01:55.180Z,12.10
2018-12-03T22:04:29.531Z,12.10
2018-12-03T22:07:03.973Z,12.10
2018-12-03T22:09:38.326Z,12.00
2018-12-03T22:12:12.652Z,12.00
2018-12-03T22:14:46.996Z,12.00
2018-12-03T22:17:21.509Z,11.90
2018-12-03T22:19:56.909Z,11.90
2018-12-03T22:22:31.146Z,11.80
2018-12-03T22:25:05.660Z,11.80
2018-12-03T22:27:39.865Z,11.70
2018-12-03T22:30:14.294Z,11.70
2018-12-03T22:32:48.635Z,11.70
2018-12-03T22:35:22.932Z,11.60
2018-12-03T22:37:57.233Z,11.60
2018-12-03T22:40:31.553Z,11.60
2018-12-03T22:43:05.881Z,11.60
2018-12-03T22:45:40.274Z,11.50
2018-12-03T22:48:14.634Z,11.30
2018-12-03T22:50:49.085Z,11.20
2018-12-03T22:53:23.435Z,11.10
2018-12-03T22:55:57.706Z,11.00
2018-12-03T22:58:32.021Z,10.80
2018-12-03T23:01:08.120Z,10.80
2018-12-03T23:03:42.325Z,10.70
2018-12-03T23:06:16.785Z,10.60
2018-12-03T23:08:51.110Z,10.60
2018-12-03T23:11:25.581Z,10.60
2018-12-03T23:13:59.943Z,10.40
2018-12-03T23:16:34.602Z,10.40
2018-12-03T23:19:08.929Z,10.40
2018-12-03T23:21:43.376Z,10.20
2018-12-03T23:24:17.688Z,10.30
2018-12-03T23:26:52.497Z,10.20
2018-12-03T23:29:26.836Z,10.20
2018-12-03T23:32:01.281Z,10.20
2018-12-03T23:34:35.464Z,10.10
2018-12-03T23:37:10.268Z,10.00
2018-12-03T23:39:44.556Z,10.00
2018-12-03T23:42:18.888Z,10.00
2018-12-03T23:44:53.391Z,10.00
2018-12-03T23:47:27.798Z,9.90
2018-12-03T23:50:02.170Z,9.80
2018-12-03T23:52:36.503Z,9.70
2018-12-03T23:55:11.072Z,9.80
2018-12-03T23:57:45.336Z,9.80
